Time;durP1;ratioP1;P1;durP2;ratioP2;P2;SDS_P1;SDS_P2;PMS_P1;PMS_P2;Temp;Humidity;BMP_temperature;BMP_pressure;BME280_temperature;BME280_humidity;BME280_pressure;Samples;Min_cycle;Max_cycle;Signal;HPM_P1;HPM_P2
2023/05/17 00:01:27;;;;;;;;;;;7.40;99.90;;;;;;5033571;28;19965;-73
2023/05/17 00:03:55;;;;;;;;;;;7.40;99.90;;;;;;5029785;28;19933;-73
2023/05/17 00:06:22;;;;;;;;;;;7.40;99.90;;;;;;5027604;28;19925;-73
2023/05/17 00:08:48;;;;;;;;;;;7.30;99.90;;;;;;5038048;28;19929;-73
2023/05/17 00:11:16;;;;;;;;;;;7.40;99.90;;;;;;5046792;28;19951;-74
2023/05/17 00:13:43;;;;;;;;;;;7.30;99.90;;;;;;5047356;28;19982;-73
2023/05/17 00:16:10;;;;;;;;;;;7.30;99.90;;;;;;5041451;28;19933;-74
2023/05/17 00:18:36;;;;;;;;;;;7.30;99.90;;;;;;5037781;28;19936;-74
2023/05/17 00:21:03;;;;;;;;;;;7.20;99.90;;;;;;5050742;28;19929;-74
2023/05/17 00:23:30;;;;;;;;;;;7.20;99.90;;;;;;5038672;28;20225;-74
2023/05/17 00:25:56;;;;;;;;;;;5.40;99.90;;;;;;5044340;28;20452;-72
2023/05/17 00:28:24;;;;;;;;;;;7.20;99.90;;;;;;5038556;28;20443;-74
2023/05/17 00:30:51;;;;;;;;;;;7.10;99.90;;;;;;5036074;28;19952;-73
2023/05/17 00:33:18;;;;;;;;;;;6.90;99.90;;;;;;5026857;28;19925;-74
2023/05/17 00:35:46;;;;;;;;;;;7.20;99.90;;;;;;5026393;28;19935;-74
2023/05/17 00:38:12;;;;;;;;;;;7.10;99.90;;;;;;5030095;28;19936;-73
2023/05/17 00:40:39;;;;;;;;;;;7.00;99.90;;;;;;5029745;28;19933;-74
2023/05/17 00:43:06;;;;;;;;;;;7.10;99.90;;;;;;5030549;28;20363;-74
2023/05/17 00:45:35;;;;;;;;;;;7.10;99.90;;;;;;5035497;28;20337;-73
2023/05/17 00:48:02;;;;;;;;;;;7.10;99.90;;;;;;5043059;28;19929;-74
2023/05/17 00:50:28;;;;;;;;;;;7.10;99.90;;;;;;5029331;28;20008;-73
2023/05/17 00:52:55;;;;;;;;;;;6.90;99.90;;;;;;5030092;28;19960;-74
2023/05/17 00:55:22;;;;;;;;;;;7.10;99.90;;;;;;5045501;28;20404;-73
2023/05/17 00:57:49;;;;;;;;;;;6.90;99.90;;;;;;5048033;28;20242;-74
2023/05/17 01:00:16;;;;;;;;;;;6.10;99.90;;;;;;5044335;28;19933;-74
2023/05/17 01:02:47;;;;;;;;;;;7.00;99.90;;;;;;5031279;28;19929;-74
2023/05/17 01:05:14;;;;;;;;;;;7.30;99.90;;;;;;5032085;28;19936;-73
2023/05/17 01:07:40;;;;;;;;;;;7.30;99.90;;;;;;5049423;28;20275;-74
2023/05/17 01:10:08;;;;;;;;;;;7.00;99.90;;;;;;5049840;28;19964;-74
2023/05/17 01:12:42;;;;;;;;;;;7.00;99.90;;;;;;5050520;28;20424;-74
2023/05/17 01:15:14;;;;;;;;;;;7.00;99.90;;;;;;5048721;28;20395;-74
2023/05/17 01:17:45;;;;;;;;;;;7.00;99.90;;;;;;5039344;28;20625;-74
2023/05/17 01:20:17;;;;;;;;;;;6.90;99.90;;;;;;5037130;28;19951;-74
2023/05/17 01:22:48;;;;;;;;;;;7.30;99.90;;;;;;5050545;28;19935;-74
2023/05/17 01:25:26;;;;;;;;;;;6.90;99.90;;;;;;5050350;28;19932;-73
2023/05/17 01:27:57;;;;;;;;;;;7.70;99.90;;;;;;5043356;28;19940;-73
2023/05/17 01:30:25;;;;;;;;;;;6.40;99.90;;;;;;5028345;28;19929;-74
2023/05/17 01:32:53;;;;;;;;;;;6.90;99.90;;;;;;5029505;28;19936;-73
2023/05/17 01:35:19;;;;;;;;;;;6.90;99.90;;;;;;5028549;28;19995;-74
2023/05/17 01:37:46;;;;;;;;;;;6.70;99.90;;;;;;5047700;28;19933;-73
2023/05/17 01:40:14;;;;;;;;;;;6.90;99.90;;;;;;5046400;28;19929;-74
2023/05/17 01:42:42;;;;;;;;;;;6.90;99.90;;;;;;5034564;28;19929;-74
2023/05/17 01:45:13;;;;;;;;;;;6.90;99.90;;;;;;5051667;28;19925;-73
2023/05/17 01:47:43;;;;;;;;;;;6.90;99.90;;;;;;5066539;28;19929;-74
2023/05/17 01:50:11;;;;;;;;;;;6.90;99.90;;;;;;5042651;28;19929;-74
2023/05/17 01:52:38;;;;;;;;;;;6.80;99.90;;;;;;5048485;28;19913;-74
2023/05/17 01:55:08;;;;;;;;;;;6.80;99.90;;;;;;5074540;28;19999;-73
2023/05/17 01:57:36;;;;;;;;;;;6.80;99.90;;;;;;5086324;28;20023;-76
2023/05/17 02:00:05;;;;;;;;;;;6.80;99.90;;;;;;5061232;28;19924;-77
2023/05/17 02:02:43;;;;;;;;;;;6.70;99.90;;;;;;5073072;28;19924;-76
2023/05/17 02:05:10;;;;;;;;;;;6.70;99.90;;;;;;5057996;28;19935;-76
2023/05/17 02:07:39;;;;;;;;;;;6.70;99.90;;;;;;5050631;28;20127;-76
2023/05/17 02:10:07;;;;;;;;;;;6.60;99.90;;;;;;5039848;28;20028;-76
2023/05/17 02:12:34;;;;;;;;;;;6.60;99.90;;;;;;5066679;28;19969;-75
2023/05/17 02:15:01;;;;;;;;;;;6.50;99.90;;;;;;5068284;28;20405;-75
2023/05/17 02:17:28;;;;;;;;;;;6.50;99.90;;;;;;5032470;28;20450;-75
2023/05/17 02:19:56;;;;;;;;;;;6.50;99.90;;;;;;5031530;28;19936;-76
2023/05/17 02:22:22;;;;;;;;;;;6.40;99.90;;;;;;5035608;28;19933;-77
2023/05/17 02:24:49;;;;;;;;;;;6.40;99.90;;;;;;5037311;28;20200;-75
2023/05/17 02:27:16;;;;;;;;;;;6.40;99.90;;;;;;5032180;28;19940;-76
2023/05/17 02:29:42;;;;;;;;;;;6.50;99.90;;;;;;5034864;28;19952;-77
2023/05/17 02:32:09;;;;;;;;;;;6.50;99.90;;;;;;5029485;28;20405;-75
2023/05/17 02:34:36;;;;;;;;;;;6.50;99.90;;;;;;5029115;28;19975;-78
2023/05/17 02:37:05;;;;;;;;;;;6.80;99.90;;;;;;5034300;28;19952;-76
2023/05/17 02:39:32;;;;;;;;;;;6.40;99.90;;;;;;5048772;28;19929;-75
2023/05/17 02:41:59;;;;;;;;;;;6.40;99.90;;;;;;5049090;28;19959;-75
2023/05/17 02:44:25;;;;;;;;;;;6.50;99.90;;;;;;5048740;28;19936;-76
2023/05/17 02:46:53;;;;;;;;;;;6.50;99.90;;;;;;5034613;28;19929;-75
2023/05/17 02:49:19;;;;;;;;;;;6.40;99.90;;;;;;5028253;28;19944;-76
2023/05/17 02:51:46;;;;;;;;;;;6.40;99.90;;;;;;5030799;28;20394;-75
2023/05/17 02:54:14;;;;;;;;;;;6.30;99.90;;;;;;5029686;28;19929;-76
2023/05/17 02:56:41;;;;;;;;;;;6.30;99.90;;;;;;5034691;28;19951;-76
2023/05/17 02:59:07;;;;;;;;;;;6.30;99.90;;;;;;5030616;28;19929;-76
2023/05/17 03:01:36;;;;;;;;;;;5.70;99.90;;;;;;5039743;28;19928;-76
2023/05/17 03:04:03;;;;;;;;;;;5.70;99.90;;;;;;5047153;28;20032;-76
2023/05/17 03:06:30;;;;;;;;;;;6.30;99.90;;;;;;5045152;28;20293;-76
2023/05/17 03:08:56;;;;;;;;;;;6.30;99.90;;;;;;5026116;28;19928;-76
2023/05/17 03:11:25;;;;;;;;;;;6.40;99.90;;;;;;5035633;28;19928;-76
2023/05/17 03:13:53;;;;;;;;;;;6.50;99.90;;;;;;5046886;28;19928;-76
2023/05/17 03:16:25;;;;;;;;;;;6.40;99.90;;;;;;5036652;28;19924;-76
2023/05/17 03:18:52;;;;;;;;;;;6.50;99.90;;;;;;5030712;28;19929;-76
2023/05/17 03:21:20;;;;;;;;;;;6.50;99.90;;;;;;5040374;28;19929;-76
2023/05/17 03:23:47;;;;;;;;;;;6.50;99.90;;;;;;5047632;28;19929;-78
2023/05/17 03:26:14;;;;;;;;;;;6.60;99.90;;;;;;5048079;28;20020;-76
2023/05/17 03:28:47;;;;;;;;;;;6.60;99.90;;;;;;5043087;28;20420;-75
2023/05/17 03:31:16;;;;;;;;;;;6.70;99.90;;;;;;5041630;28;19970;-75
2023/05/17 03:33:43;;;;;;;;;;;6.70;99.90;;;;;;5053954;28;19925;-76
2023/05/17 03:36:09;;;;;;;;;;;6.70;99.90;;;;;;5033742;28;19936;-76
2023/05/17 03:38:36;;;;;;;;;;;6.70;99.90;;;;;;5026390;28;19933;-75
2023/05/17 03:41:03;;;;;;;;;;;6.80;99.90;;;;;;5026703;28;20024;-74
2023/05/17 03:43:30;;;;;;;;;;;7.00;99.90;;;;;;5041533;28;19952;-75
2023/05/17 03:45:59;;;;;;;;;;;7.00;99.90;;;;;;5036711;28;19936;-75
2023/05/17 03:48:28;;;;;;;;;;;7.30;99.90;;;;;;5029793;28;19940;-75
2023/05/17 03:50:55;;;;;;;;;;;7.40;99.90;;;;;;5024896;28;20345;-75
2023/05/17 03:53:21;;;;;;;;;;;7.50;99.90;;;;;;5049228;28;19925;-75
2023/05/17 03:55:48;;;;;;;;;;;7.60;99.90;;;;;;5032465;28;19994;-75
2023/05/17 03:58:16;;;;;;;;;;;7.60;99.90;;;;;;5048498;28;19933;-75
2023/05/17 04:00:43;;;;;;;;;;;8.00;99.90;;;;;;5568347;22;19968;-75
2023/05/17 04:03:16;;;;;;;;;;;7.90;99.90;;;;;;5027370;28;20139;-75
2023/05/17 04:05:45;;;;;;;;;;;8.10;99.90;;;;;;5028526;28;20080;-75
2023/05/17 04:08:12;;;;;;;;;;;8.20;99.90;;;;;;5040551;28;19978;-75
2023/05/17 04:10:40;;;;;;;;;;;8.40;99.90;;;;;;5051434;28;20361;-75
2023/05/17 04:13:07;;;;;;;;;;;8.40;99.90;;;;;;5042418;28;20011;-75
2023/05/17 04:15:35;;;;;;;;;;;8.40;99.90;;;;;;5080281;22;19939;-81
2023/05/17 04:18:08;;;;;;;;;;;8.60;99.90;;;;;;5063813;28;19997;-82
2023/05/17 04:20:37;;;;;;;;;;;8.70;99.90;;;;;;5057928;28;19939;-81
2023/05/17 04:23:04;;;;;;;;;;;8.70;99.90;;;;;;5066484;28;19925;-79
2023/05/17 04:25:35;;;;;;;;;;;8.80;99.90;;;;;;5058820;28;20204;-79
2023/05/17 04:28:02;;;;;;;;;;;8.80;99.90;;;;;;5070606;28;20372;-79
2023/05/17 04:30:30;;;;;;;;;;;8.90;99.90;;;;;;5070732;28;19936;-79
2023/05/17 04:32:57;;;;;;;;;;;9.00;99.90;;;;;;5067946;28;19929;-79
2023/05/17 04:35:24;;;;;;;;;;;9.10;99.90;;;;;;5076734;28;20480;-79
2023/05/17 04:37:55;;;;;;;;;;;9.20;99.90;;;;;;5080760;28;19924;-80
2023/05/17 04:40:22;;;;;;;;;;;9.30;99.90;;;;;;5075596;28;19925;-79
2023/05/17 04:42:50;;;;;;;;;;;9.40;99.90;;;;;;5063357;28;19925;-80
2023/05/17 04:45:18;;;;;;;;;;;9.50;99.90;;;;;;5078330;28;19951;-80
2023/05/17 04:47:51;;;;;;;;;;;9.50;99.90;;;;;;5072160;28;19928;-80
2023/05/17 04:50:25;;;;;;;;;;;9.60;99.90;;;;;;5078711;28;20319;-81
2023/05/17 04:52:55;;;;;;;;;;;9.70;99.90;;;;;;5076647;28;20382;-80
2023/05/17 04:55:22;;;;;;;;;;;9.90;99.90;;;;;;5077631;28;20027;-80
2023/05/17 04:57:49;;;;;;;;;;;9.90;99.90;;;;;;5079231;28;19960;-81
2023/05/17 05:00:17;;;;;;;;;;;10.00;99.90;;;;;;5074715;28;19933;-81
2023/05/17 05:02:49;;;;;;;;;;;10.00;99.90;;;;;;5075677;28;19968;-81
2023/05/17 05:05:23;;;;;;;;;;;10.00;99.90;;;;;;5076331;28;19913;-86
2023/05/17 05:07:57;;;;;;;;;;;10.10;99.90;;;;;;5064860;22;19956;-74
2023/05/17 05:10:27;;;;;;;;;;;10.30;99.90;;;;;;5041586;28;20340;-75
2023/05/17 05:12:54;;;;;;;;;;;10.30;99.90;;;;;;5046832;28;20406;-74
2023/05/17 05:15:20;;;;;;;;;;;10.60;99.90;;;;;;5044636;28;20297;-75
2023/05/17 05:17:53;;;;;;;;;;;10.80;99.90;;;;;;5043377;28;19982;-75
2023/05/17 05:20:20;;;;;;;;;;;12.90;99.90;;;;;;5027927;28;19967;-76
2023/05/17 05:22:47;;;;;;;;;;;11.30;99.90;;;;;;5050116;28;19936;-76
2023/05/17 05:25:15;;;;;;;;;;;11.60;99.90;;;;;;5032831;28;20008;-75
2023/05/17 05:27:42;;;;;;;;;;;11.90;99.90;;;;;;5048554;28;19929;-74
2023/05/17 05:30:09;;;;;;;;;;;12.50;99.90;;;;;;5025552;28;19925;-74
2023/05/17 05:32:37;;;;;;;;;;;12.50;99.90;;;;;;5047061;28;20386;-74
2023/05/17 05:35:04;;;;;;;;;;;13.00;99.90;;;;;;5048705;28;19976;-74
2023/05/17 05:37:31;;;;;;;;;;;13.50;99.90;;;;;;5032598;28;19928;-74
2023/05/17 05:39:57;;;;;;;;;;;14.20;99.90;;;;;;5031666;28;19929;-75
2023/05/17 05:42:26;;;;;;;;;;;15.00;99.90;;;;;;5030083;28;19951;-77
2023/05/17 05:44:53;;;;;;;;;;;15.90;99.90;;;;;;5040168;28;20330;-77
2023/05/17 05:47:21;;;;;;;;;;;16.70;99.90;;;;;;5044900;28;20436;-76
2023/05/17 05:49:48;;;;;;;;;;;17.60;99.90;;;;;;5047833;28;19932;-76
2023/05/17 05:52:14;;;;;;;;;;;18.50;99.90;;;;;;5056082;28;19929;-75
2023/05/17 05:54:41;;;;;;;;;;;18.60;99.90;;;;;;5049913;28;19936;-75
2023/05/17 05:57:08;;;;;;;;;;;18.90;99.90;;;;;;5029195;28;19933;-76
2023/05/17 05:59:36;;;;;;;;;;;19.50;99.90;;;;;;5025797;28;19992;-75
2023/05/17 06:02:04;;;;;;;;;;;20.90;99.90;;;;;;5036939;28;20708;-76
2023/05/17 06:04:31;;;;;;;;;;;21.60;99.90;;;;;;5050406;28;19928;-75
2023/05/17 06:06:57;;;;;;;;;;;22.00;99.90;;;;;;5031587;28;19947;-75
2023/05/17 06:09:24;;;;;;;;;;;21.90;99.90;;;;;;5049380;28;19913;-74
2023/05/17 06:11:52;;;;;;;;;;;22.20;99.90;;;;;;5053892;28;20220;-75
2023/05/17 06:14:19;;;;;;;;;;;21.90;99.90;;;;;;5066898;28;19924;-74
2023/05/17 06:16:47;;;;;;;;;;;22.20;99.90;;;;;;5052644;28;19925;-76
2023/05/17 06:19:14;;;;;;;;;;;22.80;99.90;;;;;;5055302;28;20251;-75
2023/05/17 06:21:41;;;;;;;;;;;23.70;99.90;;;;;;5060590;28;19928;-75
2023/05/17 06:24:08;;;;;;;;;;;24.60;99.90;;;;;;5056268;28;19929;-74
2023/05/17 06:26:34;;;;;;;;;;;24.50;99.90;;;;;;5055313;28;19936;-75
2023/05/17 06:29:01;;;;;;;;;;;23.80;99.90;;;;;;5043325;28;19951;-75
2023/05/17 06:31:28;;;;;;;;;;;22.40;99.90;;;;;;5044498;28;20058;-76
2023/05/17 06:33:56;;;;;;;;;;;20.80;99.90;;;;;;5046450;28;19925;-77
2023/05/17 06:36:23;;;;;;;;;;;21.90;99.90;;;;;;5050278;28;19952;-77
2023/05/17 06:38:50;;;;;;;;;;;22.00;99.90;;;;;;5040897;28;19998;-75
2023/05/17 06:41:17;;;;;;;;;;;23.60;99.90;;;;;;5040176;28;19940;-76
2023/05/17 06:43:44;;;;;;;;;;;25.30;99.90;;;;;;5041948;28;20086;-77
2023/05/17 06:46:10;;;;;;;;;;;26.00;99.90;;;;;;5048858;28;20338;-76
2023/05/17 06:48:37;;;;;;;;;;;26.40;99.90;;;;;;5012720;28;19939;-76
2023/05/17 06:51:05;;;;;;;;;;;26.40;99.90;;;;;;5012070;28;19937;-77
2023/05/17 06:53:32;;;;;;;;;;;26.10;96.20;;;;;;5038065;28;19926;-76
2023/05/17 06:56:00;;;;;;;;;;;24.50;93.60;;;;;;5049021;28;19925;-76
2023/05/17 06:58:27;;;;;;;;;;;24.10;94.70;;;;;;5048758;28;19933;-77
2023/05/17 07:00:54;;;;;;;;;;;21.30;94.80;;;;;;5045463;28;19932;-76
2023/05/17 07:03:21;;;;;;;;;;;20.60;96.00;;;;;;5029657;28;19935;-77
2023/05/17 07:05:48;;;;;;;;;;;20.80;96.00;;;;;;5055142;28;20271;-76
2023/05/17 07:08:16;;;;;;;;;;;21.70;97.40;;;;;;5030892;28;19932;-76
2023/05/17 07:10:43;;;;;;;;;;;20.20;95.60;;;;;;5037774;28;20326;-77
2023/05/17 07:13:09;;;;;;;;;;;19.70;95.30;;;;;;5031145;28;19957;-77
2023/05/17 07:15:36;;;;;;;;;;;19.40;97.00;;;;;;5028403;28;19925;-77
2023/05/17 07:18:03;;;;;;;;;;;21.00;98.40;;;;;;5040471;28;19929;-77
2023/05/17 07:20:30;;;;;;;;;;;20.30;96.40;;;;;;5040534;28;20294;-77
2023/05/17 07:22:56;;;;;;;;;;;20.20;95.90;;;;;;5048569;28;20064;-77
2023/05/17 07:25:24;;;;;;;;;;;21.10;97.50;;;;;;5047524;28;19959;-77
2023/05/17 07:27:51;;;;;;;;;;;21.10;96.80;;;;;;5045685;28;19933;-76
2023/05/17 07:30:18;;;;;;;;;;;21.50;98.30;;;;;;5021775;28;19940;-76
2023/05/17 07:32:45;;;;;;;;;;;21.80;97.40;;;;;;5033548;28;20084;-77
2023/05/17 07:35:12;;;;;;;;;;;22.90;96.60;;;;;;5047814;28;19936;-77
2023/05/17 07:37:38;;;;;;;;;;;22.70;95.20;;;;;;5045895;28;19987;-76
2023/05/17 07:40:06;;;;;;;;;;;22.50;93.80;;;;;;5037032;28;19990;-76
2023/05/17 07:42:34;;;;;;;;;;;22.60;93.60;;;;;;5029467;28;19932;-76
2023/05/17 07:45:01;;;;;;;;;;;22.10;93.90;;;;;;5034471;28;19933;-76
2023/05/17 07:47:27;;;;;;;;;;;21.90;93.30;;;;;;5027217;28;19932;-76
2023/05/17 07:49:54;;;;;;;;;;;21.90;93.90;;;;;;5031314;28;20516;-77
2023/05/17 07:52:21;;;;;;;;;;;20.60;92.40;;;;;;5009987;28;20306;-76
2023/05/17 07:54:47;;;;;;;;;;;19.90;92.80;;;;;;5027597;28;20349;-75
2023/05/17 07:57:14;;;;;;;;;;;19.30;93.10;;;;;;5009776;28;19936;-76
2023/05/17 07:59:42;;;;;;;;;;;19.20;93.90;;;;;;5033636;28;20087;-76
2023/05/17 08:02:09;;;;;;;;;;;18.90;93.70;;;;;;5029851;28;19925;-76
2023/05/17 08:04:36;;;;;;;;;;;18.80;94.00;;;;;;5045161;28;19924;-76
2023/05/17 08:07:03;;;;;;;;;;;18.70;94.10;;;;;;5033970;28;19937;-77
2023/05/17 08:09:29;;;;;;;;;;;19.80;95.50;;;;;;5034157;28;19932;-77
2023/05/17 08:11:56;;;;;;;;;;;22.10;97.10;;;;;;5022852;28;19928;-77
2023/05/17 08:14:23;;;;;;;;;;;23.70;95.70;;;;;;5047844;28;19928;-78
2023/05/17 08:16:51;;;;;;;;;;;24.90;93.10;;;;;;5058156;28;19929;-79
2023/05/17 08:19:18;;;;;;;;;;;25.90;90.90;;;;;;5070749;28;19929;-76
2023/05/17 08:21:45;;;;;;;;;;;26.30;91.20;;;;;;5067704;28;19917;-78
2023/05/17 08:24:12;;;;;;;;;;;27.60;91.30;;;;;;5049843;28;19925;-77
2023/05/17 08:26:38;;;;;;;;;;;28.30;89.90;;;;;;5049506;28;19940;-77
2023/05/17 08:29:05;;;;;;;;;;;29.90;89.30;;;;;;5047436;28;19928;-77
2023/05/17 08:31:32;;;;;;;;;;;31.00;86.90;;;;;;5030271;28;19929;-77
2023/05/17 08:34:00;;;;;;;;;;;30.90;80.20;;;;;;5038465;28;19933;-77
2023/05/17 08:36:27;;;;;;;;;;;30.90;77.10;;;;;;5033419;28;19944;-77
2023/05/17 08:38:54;;;;;;;;;;;30.60;74.60;;;;;;5043672;28;19992;-76
2023/05/17 08:41:21;;;;;;;;;;;28.90;73.50;;;;;;5575770;22;19918;-77
2023/05/17 08:43:48;;;;;;;;;;;27.30;70.00;;;;;;5106759;28;19936;-78
2023/05/17 08:46:15;;;;;;;;;;;28.10;72.10;;;;;;5077091;28;19928;-77
2023/05/17 08:48:42;;;;;;;;;;;27.80;72.10;;;;;;5066554;28;20010;-77
2023/05/17 08:51:11;;;;;;;;;;;29.30;72.00;;;;;;5560518;22;19920;-78
2023/05/17 08:53:38;;;;;;;;;;;29.30;71.30;;;;;;5058262;28;19925;-77
2023/05/17 08:56:06;;;;;;;;;;;27.90;70.20;;;;;;5066852;28;19928;-77
2023/05/17 08:58:34;;;;;;;;;;;27.10;70.50;;;;;;5067046;28;19932;-78
2023/05/17 09:01:01;;;;;;;;;;;25.10;71.20;;;;;;5063433;28;19928;-77
2023/05/17 09:03:29;;;;;;;;;;;24.70;70.70;;;;;;5062545;28;19933;-76
2023/05/17 09:05:58;;;;;;;;;;;23.20;71.70;;;;;;5093007;22;19963;-87
2023/05/17 09:08:28;;;;;;;;;;;22.90;70.80;;;;;;5081377;28;19928;-87
2023/05/17 09:10:58;;;;;;;;;;;21.70;71.90;;;;;;5095726;28;19928;-87
2023/05/17 09:13:25;;;;;;;;;;;21.30;73.00;;;;;;5086870;28;19951;-88
2023/05/17 09:15:53;;;;;;;;;;;20.10;74.90;;;;;;5097594;28;19923;-88
2023/05/17 09:18:21;;;;;;;;;;;20.40;77.20;;;;;;5112981;28;19913;-88
2023/05/17 09:20:50;;;;;;;;;;;20.80;79.80;;;;;;5088041;28;20003;-87
2023/05/17 09:23:18;;;;;;;;;;;20.80;78.50;;;;;;5076166;28;19912;-87
2023/05/17 09:25:48;;;;;;;;;;;20.30;77.70;;;;;;5071334;28;19978;-86
2023/05/17 09:28:18;;;;;;;;;;;20.20;77.90;;;;;;5071587;28;19929;-86
2023/05/17 09:30:45;;;;;;;;;;;20.80;79.90;;;;;;5093729;28;19933;-87
2023/05/17 09:33:11;;;;;;;;;;;21.10;79.60;;;;;;5106044;28;19978;-87
2023/05/17 09:35:38;;;;;;;;;;;22.60;85.10;;;;;;5099786;28;20282;-86
2023/05/17 09:38:06;;;;;;;;;;;24.00;85.00;;;;;;5077226;28;19925;-87
2023/05/17 09:40:40;;;;;;;;;;;24.60;82.40;;;;;;5079359;28;19924;-87
2023/05/17 09:43:08;;;;;;;;;;;22.00;74.40;;;;;;5076824;28;19928;-87
2023/05/17 09:45:35;;;;;;;;;;;23.40;74.50;;;;;;5076666;28;20026;-86
2023/05/17 09:48:12;;;;;;;;;;;23.40;73.80;;;;;;5068741;28;19936;-87
2023/05/17 09:50:43;;;;;;;;;;;22.90;74.90;;;;;;5066806;28;20015;-87
2023/05/17 09:53:21;;;;;;;;;;;22.20;75.90;;;;;;5087883;28;19935;-85
2023/05/17 09:55:48;;;;;;;;;;;21.70;72.70;;;;;;5087511;28;19950;-86
2023/05/17 09:58:16;;;;;;;;;;;21.30;72.60;;;;;;5077778;28;19925;-86
2023/05/17 10:00:43;;;;;;;;;;;21.00;72.90;;;;;;5078993;28;20382;-86
2023/05/17 10:03:11;;;;;;;;;;;21.00;74.20;;;;;;5085351;28;19935;-86
2023/05/17 10:05:39;;;;;;;;;;;20.40;74.70;;;;;;5073887;28;19928;-87
2023/05/17 10:08:06;;;;;;;;;;;20.10;74.50;;;;;;5071505;28;20445;-86
2023/05/17 10:10:33;;;;;;;;;;;19.10;74.80;;;;;;5074274;28;19931;-86
2023/05/17 10:13:00;;;;;;;;;;;19.80;76.30;;;;;;5077526;28;19947;-86
2023/05/17 10:15:29;;;;;;;;;;;18.70;77.00;;;;;;5078483;28;20330;-86
2023/05/17 10:17:56;;;;;;;;;;;18.70;76.80;;;;;;5079533;28;19928;-86
2023/05/17 10:20:23;;;;;;;;;;;18.50;78.20;;;;;;5069549;28;19929;-88
2023/05/17 10:22:50;;;;;;;;;;;18.20;79.30;;;;;;5085792;28;20488;-88
2023/05/17 10:25:17;;;;;;;;;;;18.30;77.50;;;;;;5093683;28;19951;-88
2023/05/17 10:27:43;;;;;;;;;;;18.50;77.90;;;;;;5077727;28;20471;-86
2023/05/17 10:30:11;;;;;;;;;;;17.00;76.50;;;;;;5095260;28;20595;-86
2023/05/17 10:32:40;;;;;;;;;;;17.50;77.40;;;;;;5092113;28;19936;-86
2023/05/17 10:35:08;;;;;;;;;;;18.80;78.60;;;;;;5077794;28;19948;-85
2023/05/17 10:37:35;;;;;;;;;;;18.90;79.10;;;;;;5085162;28;19932;-85
2023/05/17 10:40:02;;;;;;;;;;;18.90;78.60;;;;;;5088994;28;19934;-86
2023/05/17 10:42:30;;;;;;;;;;;18.90;81.40;;;;;;5071726;28;20334;-87
2023/05/17 10:44:57;;;;;;;;;;;19.60;80.10;;;;;;5098400;28;19927;-86
2023/05/17 10:47:31;;;;;;;;;;;19.60;79.60;;;;;;5079871;28;20012;-86
2023/05/17 10:49:59;;;;;;;;;;;19.90;79.00;;;;;;5076778;28;19936;-86
2023/05/17 10:52:26;;;;;;;;;;;20.00;77.00;;;;;;5069661;28;19932;-86
2023/05/17 10:54:53;;;;;;;;;;;19.50;77.70;;;;;;5080575;28;19928;-87
2023/05/17 10:57:20;;;;;;;;;;;18.50;77.40;;;;;;5074377;28;19944;-86
2023/05/17 10:59:57;;;;;;;;;;;19.20;78.70;;;;;;5081653;28;19928;-86
2023/05/17 11:02:24;;;;;;;;;;;19.20;79.00;;;;;;5078499;28;19937;-87
2023/05/17 11:04:52;;;;;;;;;;;19.30;78.70;;;;;;5068423;28;19928;-87
2023/05/17 11:07:23;;;;;;;;;;;19.30;78.20;;;;;;5071527;28;19929;-86
2023/05/17 11:09:51;;;;;;;;;;;19.30;77.90;;;;;;5061047;28;19938;-87
2023/05/17 11:12:27;;;;;;;;;;;19.40;78.60;;;;;;5085042;28;19913;-86
2023/05/17 11:14:55;;;;;;;;;;;19.70;79.50;;;;;;5082000;28;19929;-86
2023/05/17 11:17:24;;;;;;;;;;;19.80;79.00;;;;;;5087970;28;20408;-87
2023/05/17 11:20:01;;;;;;;;;;;19.90;78.40;;;;;;5086279;28;19925;-86
2023/05/17 11:22:36;;;;;;;;;;;19.80;77.10;;;;;;5098498;28;19916;-86
2023/05/17 11:25:06;;;;;;;;;;;20.00;78.70;;;;;;5101907;28;19927;-86
2023/05/17 11:27:35;;;;;;;;;;;19.90;77.00;;;;;;5108368;28;19928;-86
2023/05/17 11:30:08;;;;;;;;;;;19.90;76.10;;;;;;5079822;28;19935;-86
2023/05/17 11:32:35;;;;;;;;;;;;;;;;;;5097579;28;19939;-86
2023/05/17 11:35:02;;;;;;;;;;;20.10;77.70;;;;;;5089388;28;19932;-86
2023/05/17 11:37:30;;;;;;;;;;;20.10;77.10;;;;;;5074554;28;19928;-86
2023/05/17 11:40:09;;;;;;;;;;;20.00;77.00;;;;;;5080472;28;19924;-86
2023/05/17 11:42:37;;;;;;;;;;;20.00;76.40;;;;;;5093609;28;19959;-86
2023/05/17 11:45:04;;;;;;;;;;;19.40;76.50;;;;;;5093929;28;19942;-86
2023/05/17 11:47:31;;;;;;;;;;;19.40;76.50;;;;;;5080001;28;19980;-88
2023/05/17 11:50:00;;;;;;;;;;;19.40;75.70;;;;;;5069135;28;19928;-88
2023/05/17 11:52:27;;;;;;;;;;;19.50;75.20;;;;;;5069295;28;19925;-87
2023/05/17 11:54:55;;;;;;;;;;;19.60;77.10;;;;;;5072781;28;20381;-88
2023/05/17 11:57:23;;;;;;;;;;;19.80;76.70;;;;;;5073414;28;19935;-87
2023/05/17 11:59:58;;;;;;;;;;;20.00;76.70;;;;;;5075475;28;19928;-87
2023/05/17 12:02:29;;;;;;;;;;;20.00;76.20;;;;;;5085831;28;20022;-85
2023/05/17 12:04:55;;;;;;;;;;;19.90;77.10;;;;;;5093247;28;19932;-86
2023/05/17 12:07:23;;;;;;;;;;;19.90;77.60;;;;;;5074791;28;20406;-86
2023/05/17 12:09:52;;;;;;;;;;;20.00;76.80;;;;;;5072248;28;19935;-86
2023/05/17 12:12:22;;;;;;;;;;;20.10;75.60;;;;;;5074662;28;19951;-87
2023/05/17 12:14:49;;;;;;;;;;;19.90;75.40;;;;;;5073024;28;20023;-86
2023/05/17 12:17:20;;;;;;;;;;;19.90;75.00;;;;;;5067581;28;19957;-88
2023/05/17 12:19:47;;;;;;;;;;;19.50;75.00;;;;;;5066113;28;19924;-88
2023/05/17 12:22:14;;;;;;;;;;;19.60;76.10;;;;;;5076529;28;19931;-87
2023/05/17 12:24:41;;;;;;;;;;;19.60;78.30;;;;;;5075445;28;19950;-87
2023/05/17 12:27:08;;;;;;;;;;;20.10;77.60;;;;;;5076274;28;19990;-87
2023/05/17 12:29:36;;;;;;;;;;;20.40;76.30;;;;;;5072640;28;19933;-87
2023/05/17 12:32:04;;;;;;;;;;;20.30;75.20;;;;;;5074101;28;19928;-85
2023/05/17 12:34:31;;;;;;;;;;;20.20;75.90;;;;;;5070722;28;19948;-85
2023/05/17 12:37:02;;;;;;;;;;;20.30;74.60;;;;;;5088421;28;19928;-85
2023/05/17 12:39:30;;;;;;;;;;;20.20;75.10;;;;;;5087075;28;19973;-84
2023/05/17 12:41:57;;;;;;;;;;;20.30;76.10;;;;;;5090930;28;19929;-85
2023/05/17 12:44:28;;;;;;;;;;;20.30;75.70;;;;;;5089855;28;19925;-84
2023/05/17 12:47:19;;;;;;;;;;;20.60;76.10;;;;;;5074426;28;19912;-83
2023/05/17 12:49:53;;;;;;;;;;;20.80;77.50;;;;;;5085977;28;19932;-86
2023/05/17 12:52:20;;;;;;;;;;;20.80;77.00;;;;;;5072089;28;20179;-85
2023/05/17 12:54:47;;;;;;;;;;;19.80;73.90;;;;;;5074275;28;19947;-84
2023/05/17 12:57:14;;;;;;;;;;;19.40;72.90;;;;;;5074797;28;19924;-85
2023/05/17 12:59:48;;;;;;;;;;;19.30;74.50;;;;;;5071930;28;19928;-85
2023/05/17 13:02:15;;;;;;;;;;;18.70;75.40;;;;;;5081411;28;20428;-85
2023/05/17 13:04:42;;;;;;;;;;;19.10;76.30;;;;;;5073335;28;19959;-85
2023/05/17 13:07:10;;;;;;;;;;;19.30;75.10;;;;;;5070983;28;19936;-83
2023/05/17 13:09:46;;;;;;;;;;;19.60;75.30;;;;;;5067557;28;19928;-84
2023/05/17 13:12:18;;;;;;;;;;;19.50;74.40;;;;;;5070504;28;20027;-84
2023/05/17 13:14:45;;;;;;;;;;;;;;;;;;5067484;28;19981;-84
2023/05/17 13:17:15;;;;;;;;;;;18.20;73.60;;;;;;5070330;28;19932;-85
2023/05/17 13:19:41;;;;;;;;;;;18.20;75.10;;;;;;5068550;28;20645;-86
2023/05/17 13:22:11;;;;;;;;;;;18.60;76.50;;;;;;5070606;28;20004;-85
2023/05/17 13:24:38;;;;;;;;;;;19.20;77.00;;;;;;5074632;28;19932;-86
2023/05/17 13:27:05;;;;;;;;;;;19.40;76.10;;;;;;5076606;28;19928;-84
2023/05/17 13:29:33;;;;;;;;;;;19.50;76.50;;;;;;5070315;28;20350;-85
2023/05/17 13:32:00;;;;;;;;;;;19.80;74.90;;;;;;5071423;28;19928;-85
2023/05/17 13:34:27;;;;;;;;;;;20.10;74.70;;;;;;5072071;28;19930;-84
2023/05/17 13:36:55;;;;;;;;;;;20.20;73.90;;;;;;5073574;28;19951;-85
2023/05/17 13:39:24;;;;;;;;;;;19.70;73.20;;;;;;5063052;28;20022;-84
2023/05/17 13:41:52;;;;;;;;;;;18.80;73.00;;;;;;5079987;28;19924;-83
2023/05/17 13:44:19;;;;;;;;;;;18.80;72.80;;;;;;5081067;28;20294;-81
2023/05/17 13:46:46;;;;;;;;;;;18.90;74.30;;;;;;5073028;28;19932;-81
2023/05/17 13:49:13;;;;;;;;;;;19.20;74.90;;;;;;5081430;28;19928;-81
2023/05/17 13:51:39;;;;;;;;;;;19.20;74.60;;;;;;5075425;28;19950;-81
2023/05/17 13:54:06;;;;;;;;;;;19.60;74.10;;;;;;5075936;28;19928;-83
2023/05/17 13:56:34;;;;;;;;;;;19.90;73.10;;;;;;5082417;28;19929;-81
2023/05/17 13:59:01;;;;;;;;;;;19.90;74.60;;;;;;5091221;28;19931;-80
2023/05/17 14:01:29;;;;;;;;;;;20.20;74.50;;;;;;5073008;28;19950;-80
2023/05/17 14:03:55;;;;;;;;;;;20.30;73.30;;;;;;5081709;28;19924;-80
2023/05/17 14:06:22;;;;;;;;;;;20.40;73.10;;;;;;5077845;28;19928;-81
2023/05/17 14:08:49;;;;;;;;;;;20.50;74.20;;;;;;5075254;28;19932;-80
2023/05/17 14:11:16;;;;;;;;;;;20.70;74.80;;;;;;5082862;28;19939;-80
2023/05/17 14:13:44;;;;;;;;;;;21.00;74.00;;;;;;5092473;28;19935;-80
2023/05/17 14:16:10;;;;;;;;;;;21.20;72.80;;;;;;5076378;28;19928;-80
2023/05/17 14:18:37;;;;;;;;;;;21.30;73.30;;;;;;5074682;28;19935;-80
2023/05/17 14:21:04;;;;;;;;;;;21.30;73.20;;;;;;5074304;28;19939;-80
2023/05/17 14:23:31;;;;;;;;;;;20.80;72.50;;;;;;5070410;28;19929;-80
2023/05/17 14:25:57;;;;;;;;;;;20.10;70.30;;;;;;5081439;28;19925;-80